Time;durP1;ratioP1;P1;durP2;ratioP2;P2;SDS_P1;SDS_P2;PMS_P1;PMS_P2;Temp;Humidity;BMP_temperature;BMP_pressure;BME280_temperature;BME280_humidity;BME280_pressure;Samples;Min_cycle;Max_cycle;Signal;HPM_P1;HPM_P2
2022/03/14 00:01:49;;;;;;;17.65;10.40;;;;;;;5.43;50.56;99052.09;5015179;28;20090;-78
2022/03/14 00:04:14;;;;;;;15.05;10.32;;;;;;;5.51;50.20;99071.19;5019462;28;20343;-78
2022/03/14 00:06:40;;;;;;;15.82;10.90;;;;;;;5.46;50.51;99064.94;5022352;28;20037;-78
2022/03/14 00:09:07;;;;;;;15.05;11.15;;;;;;;5.50;50.26;99079.34;4979755;28;20057;-78
2022/03/14 00:11:35;;;;;;;17.05;10.70;;;;;;;5.48;50.51;99078.75;5012901;28;20030;-78
2022/03/14 00:14:03;;;;;;;16.27;10.70;;;;;;;5.45;50.65;99085.28;5015153;28;20478;-78
2022/03/14 00:16:31;;;;;;;18.25;12.23;;;;;;;5.40;50.01;99078.97;5020393;28;20026;-78
2022/03/14 00:18:57;;;;;;;18.98;11.23;;;;;;;5.36;50.60;99093.66;5012577;28;20421;-78
2022/03/14 00:21:24;;;;;;;18.40;10.80;;;;;;;5.30;50.25;99074.97;4988688;28;20438;-78
2022/03/14 00:23:54;;;;;;;17.92;11.52;;;;;;;5.36;50.29;99091.00;5014474;28;20036;-78
2022/03/14 00:26:22;;;;;;;19.08;11.68;;;;;;;5.31;50.71;99095.09;5022677;28;20026;-78
2022/03/14 00:28:48;;;;;;;17.30;11.73;;;;;;;5.29;50.11;99093.66;5014909;28;20470;-78
2022/03/14 00:31:14;;;;;;;16.33;11.63;;;;;;;5.27;50.32;99093.06;5013823;28;20553;-78
2022/03/14 00:33:39;;;;;;;18.80;11.45;;;;;;;5.23;50.65;99082.09;5012286;28;20038;-78
2022/03/14 00:36:06;;;;;;;17.83;11.68;;;;;;;5.20;50.44;99081.69;4999317;28;20041;-78
2022/03/14 00:38:32;;;;;;;18.98;11.65;;;;;;;5.17;50.78;99085.59;5015490;28;20021;-78
2022/03/14 00:40:59;;;;;;;18.45;12.18;;;;;;;5.14;50.74;99077.22;5014600;28;20104;-78
2022/03/14 00:43:24;;;;;;;15.45;11.13;;;;;;;5.17;50.73;99082.13;4996769;28;20124;-78
2022/03/14 00:45:50;;;;;;;17.00;11.77;;;;;;;5.06;50.58;99064.25;5015816;28;20105;-78
2022/03/14 00:48:15;;;;;;;18.17;10.85;;;;;;;5.10;50.48;99079.50;4996323;28;20037;-78
2022/03/14 00:50:40;;;;;;;18.65;11.90;;;;;;;5.13;50.63;99086.22;4996749;28;20068;-78
2022/03/14 00:53:07;;;;;;;16.65;12.13;;;;;;;5.16;50.31;99089.25;5032403;28;20029;-78
2022/03/14 00:55:32;;;;;;;19.02;10.55;;;;;;;5.16;50.81;99097.19;5018050;28;20041;-78
2022/03/14 00:57:58;;;;;;;18.55;11.38;;;;;;;5.15;50.59;99097.38;4994934;28;20034;-78
2022/03/14 01:00:23;;;;;;;14.45;10.30;;;;;;;5.09;50.74;99079.69;5012679;28;20475;-78
2022/03/14 01:02:50;;;;;;;18.30;11.88;;;;;;;5.08;51.17;99084.19;4980731;28;20045;-78
2022/03/14 01:05:16;;;;;;;15.88;11.00;;;;;;;5.08;50.64;99089.47;4998820;28;20038;-78
2022/03/14 01:07:41;;;;;;;17.05;12.32;;;;;;;5.09;50.94;99084.97;4994598;28;20076;-78
2022/03/14 01:10:07;;;;;;;16.30;10.90;;;;;;;5.14;50.72;99091.28;5010840;28;20058;-78
2022/03/14 01:12:32;;;;;;;17.50;10.52;;;;;;;5.11;50.72;99091.69;4997199;28;20124;-78
2022/03/14 01:14:59;;;;;;;15.48;10.30;;;;;;;5.13;50.92;99104.72;4996617;28;20503;-78
2022/03/14 01:17:24;;;;;;;16.40;10.25;;;;;;;5.02;50.94;99089.47;5011512;28;20485;-78
2022/03/14 01:19:49;;;;;;;16.05;11.55;;;;;;;5.02;50.85;99082.34;4996040;28;20053;-78
2022/03/14 01:22:15;;;;;;;15.48;10.80;;;;;;;5.07;50.96;99097.59;4979730;28;20113;-78
2022/03/14 01:24:41;;;;;;;15.95;10.85;;;;;;;5.01;51.48;99090.50;4978515;28;20104;-78
2022/03/14 01:27:07;;;;;;;16.77;10.68;;;;;;;5.08;50.98;99104.53;5005843;28;20501;-78
2022/03/14 01:29:34;;;;;;;23.92;11.57;;;;;;;4.97;50.65;99081.34;5012181;28;20061;-78
2022/03/14 01:32:00;;;;;;;19.63;11.93;;;;;;;4.99;50.67;99084.59;5012312;28;20026;-78
2022/03/14 01:34:25;;;;;;;15.82;10.45;;;;;;;5.04;50.70;99105.97;4998640;28;20065;-78
2022/03/14 01:36:51;;;;;;;20.67;11.88;;;;;;;4.95;50.94;99088.69;4994810;28;20069;-78
2022/03/14 01:39:16;;;;;;;17.75;10.48;;;;;;;4.94;50.91;99089.69;5013455;28;20056;-78
2022/03/14 01:41:41;;;;;;;18.15;10.95;;;;;;;4.97;50.99;99111.25;5010462;28;20029;-78
2022/03/14 01:44:07;;;;;;;17.33;11.20;;;;;;;4.86;51.21;99095.19;5014171;28;20030;-78
2022/03/14 01:46:32;;;;;;;17.05;11.57;;;;;;;4.95;51.01;99108.00;5016938;28;20025;-78
2022/03/14 01:48:58;;;;;;;16.48;11.18;;;;;;;4.92;51.11;99102.31;5011622;28;20438;-78
2022/03/14 01:51:24;;;;;;;17.77;10.68;;;;;;;4.94;51.57;99108.19;5012581;28;20108;-78
2022/03/14 01:53:49;;;;;;;16.98;11.00;;;;;;;4.89;51.29;99111.47;5015445;28;20034;-78
2022/03/14 01:56:16;;;;;;;19.23;11.50;;;;;;;4.89;51.69;99118.59;5013094;28;20045;-78
2022/03/14 01:58:41;;;;;;;17.00;11.13;;;;;;;4.91;51.29;99119.22;5010580;28;20042;-78
2022/03/14 02:01:07;;;;;;;17.77;11.13;;;;;;;4.86;51.58;99111.06;5017507;28;20450;-78
2022/03/14 02:03:32;;;;;;;17.98;12.18;;;;;;;4.93;51.74;99133.03;5010706;28;20061;-78
2022/03/14 02:05:58;;;;;;;16.65;10.57;;;;;;;4.91;51.65;99119.22;5012142;28;20037;-78
2022/03/14 02:08:23;;;;;;;19.73;10.70;;;;;;;4.93;51.33;99125.09;5011054;28;20374;-78
2022/03/14 02:10:48;;;;;;;18.08;11.88;;;;;;;4.84;51.68;99119.22;5019522;28;20116;-78
2022/03/14 02:13:14;;;;;;;18.60;11.27;;;;;;;4.91;51.37;99129.78;5016577;28;20707;-78
2022/03/14 02:15:39;;;;;;;19.20;11.98;;;;;;;4.89;52.08;99132.63;4996132;28;20040;-78
2022/03/14 02:18:06;;;;;;;16.13;11.43;;;;;;;4.86;51.62;99133.03;5012799;28;20387;-78
2022/03/14 02:20:32;;;;;;;20.85;11.38;;;;;;;4.87;51.83;99134.66;5010907;28;20112;-78
2022/03/14 02:22:57;;;;;;;14.88;10.38;;;;;;;4.79;51.66;99121.66;5010610;28;20125;-78
2022/03/14 02:25:23;;;;;;;16.20;11.23;;;;;;;4.87;51.69;99139.94;4994272;28;20402;-78
2022/03/14 02:27:48;;;;;;;18.88;11.82;;;;;;;4.87;51.93;99139.16;5009874;28;20403;-78
2022/03/14 02:30:14;;;;;;;14.32;10.68;;;;;;;4.84;52.01;99150.13;5010427;28;20029;-78
2022/03/14 02:32:41;;;;;;;18.42;11.60;;;;;;;4.80;51.72;99148.91;5011379;28;20466;-78
2022/03/14 02:35:09;;;;;;;16.48;12.32;;;;;;;4.82;51.96;99154.81;5014084;28;20389;-78
2022/03/14 02:37:36;;;;;;;13.73;10.68;;;;;;;4.82;52.09;99152.16;5010038;28;20057;-78
2022/03/14 02:40:02;;;;;;;18.70;11.02;;;;;;;4.85;51.92;99162.34;5015686;28;20057;-78
2022/03/14 02:42:27;;;;;;;15.07;10.70;;;;;;;4.83;52.38;99161.69;5011547;28;20033;-78
2022/03/14 02:44:53;;;;;;;14.82;11.00;;;;;;;4.77;52.44;99144.84;5007129;28;20038;-77
2022/03/14 02:47:20;;;;;;;16.48;10.65;;;;;;;4.80;52.25;99151.56;4993808;28;20037;-78
2022/03/14 02:49:45;;;;;;;17.15;11.95;;;;;;;4.82;52.27;99152.16;5012499;28;20488;-78
2022/03/14 02:52:11;;;;;;;14.30;10.18;;;;;;;4.77;51.83;99157.25;5011969;28;20097;-78
2022/03/14 02:54:36;;;;;;;15.65;10.40;;;;;;;4.69;52.33;99144.22;4997130;28;20555;-78
2022/03/14 02:57:02;;;;;;;16.75;11.35;;;;;;;4.74;52.31;99155.03;5013664;28;20029;-78
2022/03/14 02:59:28;;;;;;;16.90;11.52;;;;;;;4.77;51.84;99162.53;5015704;28;20057;-78
2022/03/14 03:01:54;;;;;;;16.45;10.85;;;;;;;4.77;52.62;99167.81;5017853;28;20445;-78
2022/03/14 03:04:19;;;;;;;19.33;11.07;;;;;;;4.75;52.50;99162.75;5032533;28;20033;-78
2022/03/14 03:06:45;;;;;;;13.80;10.25;;;;;;;4.73;52.53;99163.94;5013504;28;21862;-78
2022/03/14 03:09:11;;;;;;;17.50;10.52;;;;;;;4.76;52.35;99174.94;5014886;28;20029;-78
2022/03/14 03:11:37;;;;;;;21.30;11.20;;;;;;;4.72;52.22;99173.72;5014171;28;20032;-78
2022/03/14 03:14:03;;;;;;;16.65;11.40;;;;;;;4.76;52.17;99174.13;5014658;28;20397;-79
2022/03/14 03:16:28;;;;;;;18.08;10.82;;;;;;;4.69;52.54;99170.66;4997166;28;20441;-77
2022/03/14 03:18:54;;;;;;;15.02;10.80;;;;;;;4.68;52.39;99174.31;4980683;28;20041;-78
2022/03/14 03:21:20;;;;;;;19.00;11.38;;;;;;;4.72;52.34;99183.50;5029799;28;20536;-78
2022/03/14 03:23:45;;;;;;;19.80;12.75;;;;;;;4.70;52.54;99182.84;5013046;28;20413;-78
2022/03/14 03:26:10;;;;;;;16.40;10.80;;;;;;;4.66;52.46;99176.34;5029409;28;20137;-78
2022/03/14 03:28:36;;;;;;;18.08;10.40;;;;;;;4.73;52.72;99191.22;4996225;28;20022;-78
2022/03/14 03:31:10;;;;;;;17.20;11.48;;;;;;;4.71;52.16;99190.59;5013336;28;20085;-78
2022/03/14 03:33:37;;;;;;;17.65;11.27;;;;;;;4.70;51.84;99188.16;4999557;28;20483;-78
2022/03/14 03:36:04;;;;;;;17.50;11.88;;;;;;;4.67;52.26;99185.91;5011442;28;20445;-78
2022/03/14 03:38:29;;;;;;;18.40;11.23;;;;;;;4.71;52.33;99201.19;4996346;28;20038;-78
2022/03/14 03:40:55;;;;;;;13.68;10.27;;;;;;;4.64;52.45;99194.25;5012655;28;20036;-78
2022/03/14 03:43:21;;;;;;;20.52;11.85;;;;;;;4.62;52.67;99191.81;5015493;28;20067;-78
2022/03/14 03:45:46;;;;;;;16.95;11.60;;;;;;;4.64;52.41;99204.81;4995325;28;20129;-78
2022/03/14 03:48:11;;;;;;;19.20;11.25;;;;;;;4.66;52.57;99205.44;4996763;28;20096;-78
2022/03/14 03:50:38;;;;;;;16.48;11.65;;;;;;;4.69;52.38;99208.50;5013852;28;20089;-78
2022/03/14 03:53:03;;;;;;;19.60;11.38;;;;;;;4.64;52.33;99216.22;5011475;28;20038;-78
2022/03/14 03:55:29;;;;;;;15.20;11.18;;;;;;;4.61;52.42;99211.31;5015388;28;20778;-78
2022/03/14 03:57:54;;;;;;;18.38;11.35;;;;;;;4.51;52.39;99198.50;5014490;28;20117;-78
2022/03/14 04:00:19;;;;;;;16.00;11.32;;;;;;;4.62;52.66;99217.44;4999878;28;20099;-78
2022/03/14 04:02:45;;;;;;;18.30;12.10;;;;;;;4.65;52.81;99223.16;5014734;28;20079;-78
2022/03/14 04:05:16;;;;;;;16.55;11.30;;;;;;;4.59;52.45;99210.72;5016142;28;20033;-78
2022/03/14 04:07:43;;;;;;;17.75;11.68;;;;;;;4.62;52.79;99231.47;5013839;28;20034;-78
2022/03/14 04:10:09;;;;;;;15.57;10.75;;;;;;;4.68;52.59;99240.41;5014778;28;20025;-78
2022/03/14 04:12:36;;;;;;;16.30;11.70;;;;;;;4.59;52.33;99231.84;5013634;28;20042;-78
2022/03/14 04:15:02;;;;;;;18.63;11.80;;;;;;;4.59;52.53;99237.13;4997237;28;20485;-78
2022/03/14 04:17:28;;;;;;;16.40;10.88;;;;;;;4.64;52.60;99253.22;5012357;28;20045;-78
2022/03/14 04:19:54;;;;;;;16.35;10.95;;;;;;;4.62;52.71;99242.03;5016984;28;20481;-78
2022/03/14 04:22:20;;;;;;;21.52;11.77;;;;;;;4.61;52.82;99243.03;5010935;28;20030;-78
2022/03/14 04:24:45;;;;;;;17.55;11.60;;;;;;;4.61;52.60;99250.97;4981572;28;20121;-78
2022/03/14 04:27:11;;;;;;;14.82;10.63;;;;;;;4.60;52.99;99245.88;4996354;28;20572;-78
2022/03/14 04:29:37;;;;;;;15.88;10.60;;;;;;;4.53;52.54;99237.94;5012937;28;20037;-78
2022/03/14 04:32:02;;;;;;;20.08;11.75;;;;;;;4.65;52.53;99254.88;4995337;28;20045;-78
2022/03/14 04:34:28;;;;;;;20.88;11.05;;;;;;;4.52;52.71;99234.47;4996822;28;20053;-78
2022/03/14 04:36:53;;;;;;;18.75;11.88;;;;;;;4.57;52.47;99245.28;5012720;28;20034;-78
2022/03/14 04:39:20;;;;;;;19.63;10.98;;;;;;;4.64;52.41;99263.78;4995311;28;20041;-78
2022/03/14 04:41:46;;;;;;;15.95;10.90;;;;;;;4.63;52.50;99264.78;5010168;28;20076;-78
2022/03/14 04:44:11;;;;;;;16.45;11.18;;;;;;;4.59;52.45;99257.50;5012714;28;20484;-78
2022/03/14 04:46:39;;;;;;;17.00;11.07;;;;;;;4.61;52.58;99266.81;5028149;28;20088;-78
2022/03/14 04:49:05;;;;;;;18.13;11.98;;;;;;;4.60;52.69;99264.41;5011111;28;20099;-78
2022/03/14 04:51:31;;;;;;;14.98;11.20;;;;;;;4.65;52.83;99270.72;5014515;28;20025;-78
2022/03/14 04:53:57;;;;;;;16.25;10.98;;;;;;;4.63;52.54;99272.72;5010733;28;20490;-78
2022/03/14 04:56:23;;;;;;;20.65;10.90;;;;;;;4.60;52.88;99261.75;5011364;28;20036;-78
2022/03/14 04:58:48;;;;;;;22.25;12.65;;;;;;;4.65;53.03;99276.00;4995046;28;20030;-78
2022/03/14 05:01:13;;;;;;;19.25;10.32;;;;;;;4.69;52.78;99281.69;4994808;28;20181;-77
2022/03/14 05:03:39;;;;;;;17.58;10.60;;;;;;;4.67;52.91;99283.72;5013455;28;20508;-78
2022/03/14 05:06:04;;;;;;;18.45;11.45;;;;;;;4.63;52.68;99287.81;4995124;28;20041;-78
2022/03/14 05:08:29;;;;;;;15.43;10.80;;;;;;;4.63;52.85;99277.22;5012047;28;20030;-78
2022/03/14 05:10:56;;;;;;;17.70;11.10;;;;;;;4.65;53.40;99285.75;5013097;28;20109;-78
2022/03/14 05:13:22;;;;;;;15.48;10.30;;;;;;;4.67;53.02;99296.97;4994881;28;20134;-78
2022/03/14 05:15:48;;;;;;;18.10;10.95;;;;;;;4.66;53.24;99305.88;4997950;28;20038;-79
2022/03/14 05:18:13;;;;;;;13.68;10.93;;;;;;;4.71;53.06;99308.75;4992146;28;20026;-78
2022/03/14 05:20:39;;;;;;;16.25;10.50;;;;;;;4.60;53.44;99291.66;4995914;28;20425;-78
2022/03/14 05:23:04;;;;;;;17.65;11.10;;;;;;;4.66;53.51;99300.59;4979256;28;20067;-79
2022/03/14 05:25:30;;;;;;;17.90;10.43;;;;;;;4.61;53.63;99303.03;4995135;28;20131;-78
2022/03/14 05:27:56;;;;;;;20.02;11.30;;;;;;;4.62;53.76;99302.84;5010185;28;20443;-78
2022/03/14 05:30:24;;;;;;;16.30;11.55;;;;;;;4.69;53.20;99324.81;5027204;28;20021;-78
2022/03/14 05:32:51;;;;;;;19.92;11.52;;;;;;;4.61;53.61;99319.69;5013240;28;20116;-79
2022/03/14 05:35:16;;;;;;;14.60;10.93;;;;;;;4.66;53.58;99332.31;5012823;28;20755;-78
2022/03/14 05:37:42;;;;;;;19.35;12.35;;;;;;;4.63;53.89;99316.88;5012019;28;20029;-78
2022/03/14 05:40:09;;;;;;;17.70;11.15;;;;;;;4.60;53.59;99314.63;5010167;28;20088;-78
2022/03/14 05:42:34;;;;;;;17.00;10.73;;;;;;;4.61;53.86;99330.28;5013995;28;20104;-78
2022/03/14 05:45:00;;;;;;;17.75;11.55;;;;;;;4.68;53.94;99338.22;4992341;28;20124;-78
2022/03/14 05:47:25;;;;;;;16.00;10.15;;;;;;;4.57;54.05;99329.03;5012545;28;20096;-78
2022/03/14 05:49:50;;;;;;;16.77;11.07;;;;;;;4.53;54.06;99320.72;5029137;28;20032;-77
2022/03/14 05:52:19;;;;;;;22.88;13.23;;;;;;;4.64;54.21;99350.22;4993963;28;20037;-78
2022/03/14 05:54:44;;;;;;;19.58;11.98;;;;;;;4.60;54.16;99338.41;5005121;28;20048;-77
2022/03/14 05:57:10;;;;;;;15.35;11.70;;;;;;;4.62;54.18;99347.78;4977061;28;20033;-78
2022/03/14 05:59:35;;;;;;;18.80;11.80;;;;;;;4.60;54.10;99347.16;4995119;28;20107;-78
2022/03/14 06:02:00;;;;;;;16.05;11.52;;;;;;;4.64;54.00;99352.84;5014059;28;20034;-78
2022/03/14 06:04:26;;;;;;;16.85;11.13;;;;;;;4.61;54.06;99358.56;5022223;28;20040;-78
2022/03/14 06:06:52;;;;;;;19.13;11.73;;;;;;;4.63;54.25;99370.53;4999507;28;20033;-77
2022/03/14 06:09:18;;;;;;;24.02;12.35;;;;;;;4.57;54.73;99361.59;4979672;28;20068;-78
2022/03/14 06:11:43;;;;;;;18.60;11.55;;;;;;;4.57;54.31;99377.44;5011781;28;20030;-78
2022/03/14 06:14:10;;;;;;;18.83;11.35;;;;;;;4.59;54.70;99379.88;5015046;28;20026;-78
2022/03/14 06:16:35;;;;;;;19.73;11.80;;;;;;;4.66;54.56;99385.19;4998253;28;20029;-78
2022/03/14 06:19:01;;;;;;;17.08;11.70;;;;;;;4.62;54.83;99379.50;5012228;28;20041;-78
2022/03/14 06:21:26;;;;;;;19.20;12.85;;;;;;;4.60;54.73;99389.47;4997011;28;20029;-78
2022/03/14 06:23:51;;;;;;;24.73;13.85;;;;;;;4.60;54.67;99393.91;4981580;28;20114;-78
2022/03/14 06:26:17;;;;;;;16.95;12.00;;;;;;;4.60;54.90;99399.22;4999019;28;20033;-78
2022/03/14 06:28:43;;;;;;;27.05;13.38;;;;;;;4.63;54.50;99407.56;5000448;28;20026;-78
2022/03/14 06:31:09;;;;;;;19.08;12.25;;;;;;;4.61;54.59;99403.50;4998363;28;20030;-78
2022/03/14 06:33:35;;;;;;;18.10;13.95;;;;;;;4.68;54.78;99421.00;5016166;28;20753;-78
2022/03/14 06:36:01;;;;;;;19.90;12.55;;;;;;;4.71;54.71;99423.28;5013675;28;20030;-77
2022/03/14 06:38:26;;;;;;;19.20;12.70;;;;;;;4.71;54.89;99422.44;5014127;28;20030;-78
2022/03/14 06:40:54;;;;;;;21.88;12.50;;;;;;;4.70;54.58;99424.25;5012295;28;20489;-78
2022/03/14 06:43:21;;;;;;;17.42;11.85;;;;;;;4.73;55.11;99428.34;5015589;28;20466;-77
2022/03/14 06:45:48;;;;;;;22.00;13.35;;;;;;;4.72;54.25;99422.25;4991170;28;20034;-78
2022/03/14 06:48:14;;;;;;;19.98;12.27;;;;;;;4.78;54.82;99432.06;5021936;28;20037;-77
2022/03/14 06:50:40;;;;;;;19.08;12.00;;;;;;;4.81;54.81;99436.09;5016228;28;20029;-78
2022/03/14 06:53:06;;;;;;;19.55;11.77;;;;;;;4.87;54.99;99438.78;5016435;28;20029;-78
2022/03/14 06:55:32;;;;;;;18.52;11.45;;;;;;;4.86;54.86;99437.16;5011954;28;20068;-77
2022/03/14 06:57:58;;;;;;;18.65;11.65;;;;;;;4.85;54.90;99429.44;4975591;28;20042;-78
2022/03/14 07:00:23;;;;;;;23.13;12.45;;;;;;;4.96;54.83;99455.28;4992430;28;20469;-78
2022/03/14 07:02:49;;;;;;;19.73;12.43;;;;;;;4.97;55.33;99441.06;5012324;28;20479;-77
2022/03/14 07:05:20;;;;;;;18.90;12.45;;;;;;;4.98;55.22;99438.22;5014805;28;20044;-78
2022/03/14 07:07:46;;;;;;;17.35;12.35;;;;;;;5.02;54.91;99442.09;4999866;28;20030;-78
2022/03/14 07:10:13;;;;;;;23.55;12.25;;;;;;;5.07;55.15;99444.13;5011626;28;20041;-77
2022/03/14 07:12:44;;;;;;;16.50;11.93;;;;;;;4.96;54.94;99420.91;4996483;28;20068;-77
2022/03/14 07:15:10;;;;;;;21.13;12.95;;;;;;;5.03;55.11;99427.84;4992901;28;20132;-78
2022/03/14 07:17:36;;;;;;;23.02;12.63;;;;;;;5.09;54.92;99434.16;4988625;28;20050;-78
2022/03/14 07:20:01;;;;;;;24.77;12.90;;;;;;;5.18;54.94;99443.56;5027006;28;20045;-77
2022/03/14 07:22:28;;;;;;;24.80;13.13;;;;;;;5.20;54.91;99447.66;5015763;28;20022;-78
2022/03/14 07:24:53;;;;;;;25.55;12.73;;;;;;;5.18;54.87;99436.44;4995666;28;20422;-77
2022/03/14 07:27:19;;;;;;;28.88;12.90;;;;;;;5.23;55.36;99446.44;4993911;28;20041;-78
2022/03/14 07:29:44;;;;;;;20.42;13.70;;;;;;;5.32;54.72;99450.53;4978226;28;20035;-77
2022/03/14 07:32:09;;;;;;;28.48;15.40;;;;;;;5.32;55.03;99448.72;5010019;28;20034;-78
2022/03/14 07:34:35;;;;;;;30.48;15.00;;;;;;;5.37;55.09;99444.66;5013396;28;20022;-78
2022/03/14 07:37:00;;;;;;;26.52;14.20;;;;;;;5.39;55.31;99455.84;5018759;28;20032;-78
2022/03/14 07:39:26;;;;;;;27.70;14.80;;;;;;;5.47;55.30;99472.38;5003831;28;20044;-78
2022/03/14 07:41:51;;;;;;;31.48;15.13;;;;;;;5.47;55.16;99456.47;4980491;28;20034;-78
2022/03/14 07:44:16;;;;;;;34.90;15.52;;;;;;;5.56;55.28;99478.28;5011826;28;20044;-78
2022/03/14 07:46:41;;;;;;;32.40;15.57;;;;;;;5.56;55.67;99457.94;4995144;28;20486;-77
2022/03/14 07:49:08;;;;;;;25.23;15.40;;;;;;;5.57;55.88;99459.53;4977992;28;20060;-78
2022/03/14 07:51:33;;;;;;;28.02;15.80;;;;;;;5.72;55.61;99486.66;5012470;28;20120;-78
2022/03/14 07:53:59;;;;;;;25.17;14.07;;;;;;;5.71;56.24;99477.09;5012020;28;20086;-78
2022/03/14 07:56:24;;;;;;;24.55;14.13;;;;;;;5.83;56.16;99488.72;5000943;28;20104;-78
2022/03/14 07:58:50;;;;;;;23.90;15.20;;;;;;;5.74;55.36;99475.88;5017893;28;20513;-77
2022/03/14 08:01:17;;;;;;;25.58;14.48;;;;;;;5.93;55.90;99498.94;5015186;28;20098;-77
2022/03/14 08:03:42;;;;;;;20.88;14.40;;;;;;;5.89;55.77;99482.66;5013593;28;20497;-78
2022/03/14 08:06:08;;;;;;;21.02;14.00;;;;;;;5.94;55.61;99482.06;4998984;28;20034;-78
2022/03/14 08:08:33;;;;;;;21.73;14.68;;;;;;;6.09;55.58;99506.50;5026497;28;20036;-77
2022/03/14 08:11:01;;;;;;;26.17;14.52;;;;;;;6.13;55.28;99505.09;4995537;28;20030;-77
2022/03/14 08:13:27;;;;;;;23.40;14.13;;;;;;;6.13;55.64;99491.84;5018724;28;20029;-78
2022/03/14 08:15:53;;;;;;;23.67;13.38;;;;;;;6.22;55.58;99501.22;5018784;28;20037;-78
2022/03/14 08:18:18;;;;;;;26.65;14.35;;;;;;;6.22;55.31;99487.97;5014255;28;20120;-78
2022/03/14 08:20:44;;;;;;;22.63;14.15;;;;;;;6.29;55.47;99491.41;4997606;28;20042;-78
2022/03/14 08:23:09;;;;;;;23.70;13.45;;;;;;;6.39;55.83;99493.66;4998421;28;20042;-77
2022/03/14 08:25:35;;;;;;;21.38;14.25;;;;;;;6.40;56.00;99493.44;5015183;28;20033;-78
2022/03/14 08:28:01;;;;;;;21.48;14.18;;;;;;;6.45;56.15;99495.47;5013963;28;20061;-77
2022/03/14 08:30:27;;;;;;;21.35;13.13;;;;;;;6.48;55.84;99497.72;4998844;28;20096;-77
2022/03/14 08:32:57;;;;;;;26.65;15.45;;;;;;;6.50;55.98;99493.03;5016977;28;20026;-78
2022/03/14 08:35:24;;;;;;;21.67;14.25;;;;;;;6.53;56.30;99506.66;5014352;28;20521;-78
2022/03/14 08:37:52;;;;;;;26.02;14.23;;;;;;;6.56;56.85;99513.41;4994034;28;20504;-77
2022/03/14 08:40:21;;;;;;;22.85;14.55;;;;;;;6.61;56.75;99521.56;5014619;28;20405;-78
2022/03/14 08:42:47;;;;;;;31.00;15.10;;;;;;;6.60;56.25;99520.75;5017629;28;20025;-78
2022/03/14 08:45:14;;;;;;;21.52;14.45;;;;;;;6.63;56.57;99517.69;5015505;28;20029;-78
2022/03/14 08:47:39;;;;;;;20.45;14.40;;;;;;;6.63;56.63;99522.19;5008843;28;20030;-78
2022/03/14 08:50:07;;;;;;;22.33;15.57;;;;;;;6.73;57.56;99535.81;4994270;28;20032;-78
2022/03/14 08:52:34;;;;;;;26.52;16.13;;;;;;;6.74;58.07;99532.97;5019501;28;20049;-77
2022/03/14 08:54:59;;;;;;;29.50;15.98;;;;;;;6.78;59.38;99543.97;5010493;28;20025;-78
2022/03/14 08:57:25;;;;;;;25.75;15.13;;;;;;;6.81;61.26;99544.38;5009909;28;20096;-77
2022/03/14 08:59:51;;;;;;;21.48;13.98;;;;;;;6.80;61.40;99547.25;5030040;28;20470;-78
2022/03/14 09:02:16;;;;;;;24.35;14.45;;;;;;;6.87;61.73;99549.88;5018273;28;20030;-77
2022/03/14 09:04:41;;;;;;;23.20;14.82;;;;;;;6.90;62.75;99554.78;4986253;28;20049;-78
2022/03/14 09:07:09;;;;;;;24.83;14.88;;;;;;;6.84;64.36;99543.16;5011017;28;20129;-78
2022/03/14 09:09:34;;;;;;;24.42;15.20;;;;;;;6.87;65.31;99553.34;5012882;28;20034;-78
2022/03/14 09:12:00;;;;;;;24.13;15.32;;;;;;;6.94;64.89;99563.97;5011458;28;20118;-78
2022/03/14 09:14:26;;;;;;;26.80;15.13;;;;;;;6.87;66.03;99550.72;5018402;28;20022;-77
2022/03/14 09:16:51;;;;;;;22.45;14.23;;;;;;;6.88;66.54;99560.28;5019232;28;20030;-78
2022/03/14 09:19:17;;;;;;;19.77;13.30;;;;;;;6.89;67.26;99558.44;5010869;28;20030;-77
2022/03/14 09:21:42;;;;;;;22.00;16.20;;;;;;;6.93;67.57;99579.06;5012749;28;20057;-78
2022/03/14 09:24:07;;;;;;;21.67;14.02;;;;;;;6.90;67.85;99581.31;5012489;28;20033;-77
2022/03/14 09:26:35;;;;;;;20.83;13.43;;;;;;;6.88;67.70;99580.72;5011520;28;20084;-77
2022/03/14 09:29:01;;;;;;;21.15;14.43;;;;;;;6.86;68.41;99585.41;5008706;28;20060;-77
2022/03/14 09:31:26;;;;;;;18.70;12.82;;;;;;;6.86;68.13;99599.47;5008429;28;20026;-77
2022/03/14 09:33:51;;;;;;;19.35;13.38;;;;;;;6.86;68.73;99615.41;5013025;28;20030;-77
2022/03/14 09:36:17;;;;;;;21.85;15.88;;;;;;;6.83;69.47;99607.88;5008744;28;20034;-77
2022/03/14 09:38:43;;;;;;;23.08;14.18;;;;;;;6.82;68.92;99611.53;5017454;28;20449;-77
2022/03/14 09:41:12;;;;;;;21.83;14.27;;;;;;;6.79;68.84;99610.09;5016294;28;20033;-77
2022/03/14 09:43:39;;;;;;;19.50;12.82;;;;;;;6.72;67.54;99609.31;5010974;28;20470;-77
2022/03/14 09:46:07;;;;;;;25.33;14.77;;;;;;;6.72;67.75;99614.59;5006703;28;20026;-77
2022/03/14 09:48:39;;;;;;;20.75;13.80;;;;;;;6.76;68.35;99625.63;5001908;28;20501;-76
2022/03/14 09:51:06;;;;;;;21.02;14.45;;;;;;;6.74;67.22;99630.31;5009589;28;20492;-77
2022/03/14 09:53:34;;;;;;;20.13;14.23;;;;;;;6.72;66.96;99632.34;5013840;28;20167;-77
2022/03/14 09:56:00;;;;;;;20.42;14.38;;;;;;;6.66;66.51;99628.66;5008903;28;20025;-77
2022/03/14 09:58:26;;;;;;;21.77;14.05;;;;;;;6.67;66.64;99624.19;5010273;28;20710;-77
2022/03/14 10:00:52;;;;;;;21.30;14.38;;;;;;;6.67;67.45;99630.31;5010524;28;20095;-77
2022/03/14 10:03:18;;;;;;;23.77;14.40;;;;;;;6.66;67.95;99633.97;5010560;28;20124;-77
2022/03/14 10:05:44;;;;;;;24.30;15.18;;;;;;;6.69;68.50;99635.41;5010552;28;20069;-77
2022/03/14 10:08:11;;;;;;;19.35;14.07;;;;;;;6.66;68.67;99625.22;5009264;28;20370;-78
2022/03/14 10:10:37;;;;;;;22.02;15.38;;;;;;;6.72;69.61;99640.31;4991841;28;20026;-77
2022/03/14 10:13:05;;;;;;;23.13;15.20;;;;;;;6.68;69.34;99639.09;5014416;28;20087;-77
2022/03/14 10:15:32;;;;;;;21.08;15.32;;;;;;;6.65;70.00;99626.22;5011962;28;20057;-77
2022/03/14 10:17:58;;;;;;;27.13;15.95;;;;;;;6.76;71.56;99642.34;5011457;28;20708;-77
2022/03/14 10:20:25;;;;;;;27.80;16.55;;;;;;;6.74;72.12;99638.28;5025070;28;20029;-77
2022/03/14 10:22:51;;;;;;;28.05;17.15;;;;;;;6.78;73.66;99639.50;5015064;28;20064;-77
2022/03/14 10:25:19;;;;;;;29.10;18.80;;;;;;;6.80;74.61;99632.13;4993913;28;20128;-77
2022/03/14 10:27:49;;;;;;;23.38;15.82;;;;;;;6.88;74.64;99637.22;5003871;28;20030;-77
2022/03/14 10:30:22;;;;;;;29.30;17.80;;;;;;;6.89;74.53;99644.19;5011640;28;20079;-78
2022/03/14 10:32:48;;;;;;;24.10;16.58;;;;;;;6.95;75.83;99643.34;5008838;28;20052;-77
2022/03/14 10:35:20;;;;;;;26.10;17.75;;;;;;;7.01;76.06;99655.78;4990635;28;20026;-77
2022/03/14 10:38:07;;;;;;;27.45;17.70;;;;;;;7.06;75.25;99650.69;5011685;28;20505;-77
2022/03/14 10:40:37;;;;;;;26.73;16.67;;;;;;;7.07;75.12;99643.56;5006783;28;20452;-77
2022/03/14 10:43:29;;;;;;;26.05;16.25;;;;;;;7.18;73.51;99654.38;4976548;28;20116;-78
2022/03/14 10:45:55;;;;;;;33.95;19.05;;;;;;;7.27;74.90;99660.28;5011288;28;20026;-78
2022/03/14 10:48:43;;;;;;;29.85;19.15;;;;;;;7.23;78.01;99651.09;5007142;28;20084;-77
2022/03/14 10:51:11;;;;;;;26.63;16.95;;;;;;;7.38;79.53;99678.22;5010794;28;20026;-77
2022/03/14 10:53:45;;;;;;;24.90;17.30;;;;;;;7.41;79.23;99673.31;5009439;28;20022;-78
2022/03/14 10:56:11;;;;;;;24.40;16.33;;;;;;;7.36;79.42;99673.09;5006758;28;20037;-78
2022/03/14 10:58:38;;;;;;;23.30;16.38;;;;;;;7.36;78.49;99665.13;5032291;28;20079;-78
2022/03/14 11:01:05;;;;;;;24.92;15.40;;;;;;;7.42;78.78;99669.66;5007765;28;20037;-78
2022/03/14 11:03:32;;;;;;;26.95;17.75;;;;;;;7.40;78.91;99674.31;5012961;28;20041;-77
2022/03/14 11:06:02;;;;;;;21.35;16.65;;;;;;;7.40;79.10;99671.66;5011387;28;20034;-78
2022/03/14 11:08:36;;;;;;;23.00;15.40;;;;;;;7.49;78.52;99686.34;5006143;28;20029;-77
2022/03/14 11:11:08;;;;;;;23.05;16.50;;;;;;;7.46;79.20;99689.44;5013837;28;20033;-77
2022/03/14 11:13:45;;;;;;;22.33;15.95;;;;;;;7.52;79.71;99685.13;5008831;28;20038;-77
2022/03/14 11:16:17;;;;;;;22.40;15.10;;;;;;;7.54;80.29;99689.22;5017778;28;20555;-77
2022/03/14 11:18:45;;;;;;;21.08;15.00;;;;;;;7.56;78.47;99696.97;5012820;28;20042;-77
2022/03/14 11:21:12;;;;;;;25.85;15.00;;;;;;;7.58;78.61;99693.09;5013191;28;20034;-77